Skip Navigation LinksHome page > Weather > Current weather Skip Navigation Links

Current Weather

Northolt, United Kingdom

For information only: do not use for flight planning or navigation.
Latest weather
Observation time Monday, October 18, 2021 7:50 PM BST
Local time Monday, October 18, 2021 8:42 PM BST
Flight conditions Instrument Meteorological Conditions
Winds
Wind direction South-Southwest (200°)
Wind speed 10 mph
Visibility 6.2 mi.
Sky condition
Ceiling 700 ft. broken clouds
Cloud layer few clouds 600 ft.
Cloud layer broken clouds 700 ft.
Cloud layer overcast 2,200 ft.
Temperature 61°F
Dewpoint 59°F
Altimeter 29.94 in.Hg
Derived measurements
Relative humidity 94%
Density altitude 367 ft.
Remarks
Temporarily.
METAR EGWU 181850Z 20009KT 9999 FEW006 BKN007 OVC022 16/15 Q1014 TEMPO SCT006 RMK GRN TEMPO YLO1

Settings

Location code

InnerDrive.Weather 4.0.6770.0 Release CLR 4.0.30319.42000
Copyright ©2018 Inner Drive Technology. All rights reserved. Portions Copyright ©1986-2018 David Braverman.

Find weather

Site navigation


Skip Navigation Links

Place info

Page info

PayPal - The safer, easier way to pay online!

Return home.

Copyright ©2021 Inner Drive Technology. Purveyors of fine, hand-crafted computer software. Page printed 2021-10-18T19:42:15 UTC.